Indian Cove, Idaho
Current Conditions -  °F | °C
As of 11:58 AM on Tuesday 27 Jan 2015 (Local Time) from KMUO Reporting Station
Moderate Fog Moderate Fog  
Wind Chill: 32°   Ceiling: 200
Heat Index: 32°   Visibility: 0.5mi
Dew Point: 32°   Wind: 3mph
Humidity: 100%   Direction: 190°S
Pressure: 30.12"   Gusts: NA
Location:  42.9835°N, 115.554°W
Report Text: KMUO 271858Z 19003KT 1/2SM R30/0900FT FG VV002 00/00 A3012 RMK AO2A SLP222 TWR VIS 1/8SM
Loading
Personal Weather Stations






























Interactive Weather Map New forecast layout! Learn more

10-Day Weather Forecast

Advertisements
Track Severe Weather on mobile